sensor_id;sensor_type;location;lat;lon;timestamp;P1;durP1;ratioP1;P2;durP2;ratioP2
34196;SDS011;36594;45.192;5.722;2023-03-31T00:01:07;0.90;;;0.90;;
34196;SDS011;36594;45.192;5.722;2023-03-31T00:03:55;1.00;;;1.00;;
34196;SDS011;36594;45.192;5.722;2023-03-31T00:06:45;1.20;;;1.10;;
34196;SDS011;36594;45.192;5.722;2023-03-31T00:09:33;1.00;;;1.00;;
34196;SDS011;36594;45.192;5.722;2023-03-31T00:12:22;1.40;;;1.10;;
34196;SDS011;36594;45.192;5.722;2023-03-31T00:15:11;1.10;;;1.02;;
34196;SDS011;36594;45.192;5.722;2023-03-31T00:17:59;1.10;;;1.05;;
34196;SDS011;36594;45.192;5.722;2023-03-31T00:20:48;1.00;;;1.00;;
34196;SDS011;36594;45.192;5.722;2023-03-31T00:23:38;1.10;;;1.10;;
34196;SDS011;36594;45.192;5.722;2023-03-31T00:26:30;0.95;;;0.95;;
34196;SDS011;36594;45.192;5.722;2023-03-31T00:29:19;1.10;;;1.10;;
34196;SDS011;36594;45.192;5.722;2023-03-31T00:32:08;1.40;;;0.90;;
34196;SDS011;36594;45.192;5.722;2023-03-31T00:34:57;0.93;;;0.93;;
34196;SDS011;36594;45.192;5.722;2023-03-31T00:37:47;0.90;;;0.90;;
34196;SDS011;36594;45.192;5.722;2023-03-31T00:40:35;0.98;;;0.98;;
34196;SDS011;36594;45.192;5.722;2023-03-31T00:43:30;1.85;;;1.15;;
34196;SDS011;36594;45.192;5.722;2023-03-31T00:46:25;1.00;;;0.90;;
34196;SDS011;36594;45.192;5.722;2023-03-31T00:49:19;0.82;;;0.82;;
34196;SDS011;36594;45.192;5.722;2023-03-31T00:52:14;1.00;;;1.00;;
34196;SDS011;36594;45.192;5.722;2023-03-31T00:55:05;1.03;;;1.03;;
34196;SDS011;36594;45.192;5.722;2023-03-31T00:57:56;0.77;;;0.77;;
34196;SDS011;36594;45.192;5.722;2023-03-31T01:00:47;0.75;;;0.70;;
34196;SDS011;36594;45.192;5.722;2023-03-31T01:03:40;0.80;;;0.80;;
34196;SDS011;36594;45.192;5.722;2023-03-31T01:06:31;0.70;;;0.70;;
34196;SDS011;36594;45.192;5.722;2023-03-31T01:09:20;1.75;;;0.90;;
34196;SDS011;36594;45.192;5.722;2023-03-31T01:12:11;0.85;;;0.85;;
34196;SDS011;36594;45.192;5.722;2023-03-31T01:15:03;0.80;;;0.80;;
34196;SDS011;36594;45.192;5.722;2023-03-31T01:17:52;1.00;;;1.00;;
34196;SDS011;36594;45.192;5.722;2023-03-31T01:44:56;1.02;;;1.02;;
34196;SDS011;36594;45.192;5.722;2023-03-31T01:47:51;1.10;;;0.90;;
34196;SDS011;36594;45.192;5.722;2023-03-31T01:50:45;1.75;;;0.90;;
34196;SDS011;36594;45.192;5.722;2023-03-31T01:56:51;0.80;;;0.80;;
34196;SDS011;36594;45.192;5.722;2023-03-31T01:59:57;0.98;;;0.98;;
34196;SDS011;36594;45.192;5.722;2023-03-31T02:02:48;1.07;;;0.82;;
34196;SDS011;36594;45.192;5.722;2023-03-31T02:05:54;0.70;;;0.70;;
34196;SDS011;36594;45.192;5.722;2023-03-31T02:08:48;0.70;;;0.70;;
34196;SDS011;36594;45.192;5.722;2023-03-31T02:11:39;0.93;;;0.93;;
34196;SDS011;36594;45.192;5.722;2023-03-31T02:14:29;1.00;;;0.90;;
34196;SDS011;36594;45.192;5.722;2023-03-31T02:17:20;0.90;;;0.80;;
34196;SDS011;36594;45.192;5.722;2023-03-31T02:20:15;0.83;;;0.83;;
34196;SDS011;36594;45.192;5.722;2023-03-31T02:23:05;1.10;;;1.00;;
34196;SDS011;36594;45.192;5.722;2023-03-31T02:26:03;0.80;;;0.80;;
34196;SDS011;36594;45.192;5.722;2023-03-31T02:28:53;1.02;;;0.93;;
34196;SDS011;36594;45.192;5.722;2023-03-31T02:31:59;1.20;;;1.20;;
34196;SDS011;36594;45.192;5.722;2023-03-31T02:34:54;0.80;;;0.80;;
34196;SDS011;36594;45.192;5.722;2023-03-31T02:37:43;0.95;;;0.85;;
34196;SDS011;36594;45.192;5.722;2023-03-31T02:40:34;0.88;;;0.88;;
34196;SDS011;36594;45.192;5.722;2023-03-31T02:43:22;0.82;;;0.82;;
34196;SDS011;36594;45.192;5.722;2023-03-31T02:46:10;1.02;;;1.00;;
34196;SDS011;36594;45.192;5.722;2023-03-31T02:48:59;0.98;;;0.90;;
34196;SDS011;36594;45.192;5.722;2023-03-31T02:58:06;0.78;;;0.78;;
34196;SDS011;36594;45.192;5.722;2023-03-31T03:01:05;0.90;;;0.90;;
34196;SDS011;36594;45.192;5.722;2023-03-31T03:07:27;0.80;;;0.80;;
34196;SDS011;36594;45.192;5.722;2023-03-31T03:11:17;0.88;;;0.88;;
34196;SDS011;36594;45.192;5.722;2023-03-31T03:13:38;0.80;;;0.80;;
34196;SDS011;36594;45.192;5.722;2023-03-31T03:16:34;0.85;;;0.85;;
34196;SDS011;36594;45.192;5.722;2023-03-31T03:19:21;0.90;;;0.80;;
34196;SDS011;36594;45.192;5.722;2023-03-31T03:22:10;0.70;;;0.70;;
34196;SDS011;36594;45.192;5.722;2023-03-31T03:24:59;0.70;;;0.70;;
34196;SDS011;36594;45.192;5.722;2023-03-31T03:27:47;0.78;;;0.78;;
34196;SDS011;36594;45.192;5.722;2023-03-31T03:30:37;0.70;;;0.70;;
34196;SDS011;36594;45.192;5.722;2023-03-31T03:33:26;0.80;;;0.80;;
34196;SDS011;36594;45.192;5.722;2023-03-31T03:36:15;0.75;;;0.75;;
34196;SDS011;36594;45.192;5.722;2023-03-31T03:39:05;0.80;;;0.80;;
34196;SDS011;36594;45.192;5.722;2023-03-31T03:41:54;0.82;;;0.82;;
34196;SDS011;36594;45.192;5.722;2023-03-31T03:44:42;0.72;;;0.72;;
34196;SDS011;36594;45.192;5.722;2023-03-31T03:47:30;0.72;;;0.72;;
34196;SDS011;36594;45.192;5.722;2023-03-31T03:50:18;0.80;;;0.80;;
34196;SDS011;36594;45.192;5.722;2023-03-31T03:53:07;0.80;;;0.80;;
34196;SDS011;36594;45.192;5.722;2023-03-31T03:55:55;0.93;;;0.93;;
34196;SDS011;36594;45.192;5.722;2023-03-31T03:58:44;1.12;;;1.05;;
34196;SDS011;36594;45.192;5.722;2023-03-31T04:01:33;0.80;;;0.80;;
34196;SDS011;36594;45.192;5.722;2023-03-31T04:04:21;0.80;;;0.80;;
34196;SDS011;36594;45.192;5.722;2023-03-31T04:07:10;0.90;;;0.90;;
34196;SDS011;36594;45.192;5.722;2023-03-31T04:09:58;0.80;;;0.80;;
34196;SDS011;36594;45.192;5.722;2023-03-31T04:12:47;0.90;;;0.90;;
34196;SDS011;36594;45.192;5.722;2023-03-31T04:15:36;0.80;;;0.80;;
34196;SDS011;36594;45.192;5.722;2023-03-31T04:18:24;0.80;;;0.80;;
34196;SDS011;36594;45.192;5.722;2023-03-31T04:21:13;0.80;;;0.80;;
34196;SDS011;36594;45.192;5.722;2023-03-31T04:24:03;0.70;;;0.70;;
34196;SDS011;36594;45.192;5.722;2023-03-31T04:26:53;0.90;;;0.90;;
34196;SDS011;36594;45.192;5.722;2023-03-31T04:29:42;0.80;;;0.80;;
34196;SDS011;36594;45.192;5.722;2023-03-31T04:32:31;0.80;;;0.80;;
34196;SDS011;36594;45.192;5.722;2023-03-31T04:35:22;0.87;;;0.87;;
34196;SDS011;36594;45.192;5.722;2023-03-31T04:38:12;0.78;;;0.78;;
34196;SDS011;36594;45.192;5.722;2023-03-31T04:41:02;0.83;;;0.83;;
34196;SDS011;36594;45.192;5.722;2023-03-31T04:43:52;0.88;;;0.88;;
34196;SDS011;36594;45.192;5.722;2023-03-31T04:46:41;1.20;;;0.90;;
34196;SDS011;36594;45.192;5.722;2023-03-31T04:49:29;0.90;;;0.90;;
34196;SDS011;36594;45.192;5.722;2023-03-31T04:52:19;0.70;;;0.70;;
34196;SDS011;36594;45.192;5.722;2023-03-31T04:55:08;0.80;;;0.80;;
34196;SDS011;36594;45.192;5.722;2023-03-31T04:57:57;1.10;;;0.70;;
34196;SDS011;36594;45.192;5.722;2023-03-31T05:00:46;0.72;;;0.72;;
34196;SDS011;36594;45.192;5.722;2023-03-31T05:03:34;0.83;;;0.53;;
34196;SDS011;36594;45.192;5.722;2023-03-31T05:06:22;1.07;;;1.07;;
34196;SDS011;36594;45.192;5.722;2023-03-31T05:09:11;1.70;;;1.07;;
34196;SDS011;36594;45.192;5.722;2023-03-31T05:11:59;0.98;;;0.98;;
34196;SDS011;36594;45.192;5.722;2023-03-31T05:14:47;0.70;;;0.70;;
34196;SDS011;36594;45.192;5.722;2023-03-31T05:17:36;0.70;;;0.70;;
34196;SDS011;36594;45.192;5.722;2023-03-31T05:20:24;0.90;;;0.77;;
34196;SDS011;36594;45.192;5.722;2023-03-31T05:23:12;0.70;;;0.70;;
34196;SDS011;36594;45.192;5.722;2023-03-31T05:26:01;0.80;;;0.80;;
34196;SDS011;36594;45.192;5.722;2023-03-31T05:28:50;0.85;;;0.85;;
34196;SDS011;36594;45.192;5.722;2023-03-31T05:31:39;0.70;;;0.70;;
34196;SDS011;36594;45.192;5.722;2023-03-31T05:34:27;0.80;;;0.80;;
34196;SDS011;36594;45.192;5.722;2023-03-31T05:37:16;0.90;;;0.90;;
34196;SDS011;36594;45.192;5.722;2023-03-31T05:40:06;0.82;;;0.82;;
34196;SDS011;36594;45.192;5.722;2023-03-31T05:42:56;0.95;;;0.95;;
34196;SDS011;36594;45.192;5.722;2023-03-31T05:45:44;0.70;;;0.70;;
34196;SDS011;36594;45.192;5.722;2023-03-31T05:48:32;0.70;;;0.70;;
34196;SDS011;36594;45.192;5.722;2023-03-31T05:51:23;1.20;;;0.88;;
34196;SDS011;36594;45.192;5.722;2023-03-31T05:54:12;0.80;;;0.80;;
34196;SDS011;36594;45.192;5.722;2023-03-31T05:57:01;1.00;;;0.80;;
34196;SDS011;36594;45.192;5.722;2023-03-31T05:59:50;0.85;;;0.78;;
34196;SDS011;36594;45.192;5.722;2023-03-31T06:02:38;0.60;;;0.60;;
34196;SDS011;36594;45.192;5.722;2023-03-31T06:05:27;0.60;;;0.60;;
34196;SDS011;36594;45.192;5.722;2023-03-31T06:08:17;0.90;;;0.80;;
34196;SDS011;36594;45.192;5.722;2023-03-31T06:11:06;3.98;;;1.00;;
34196;SDS011;36594;45.192;5.722;2023-03-31T06:13:57;1.00;;;0.90;;
34196;SDS011;36594;45.192;5.722;2023-03-31T06:16:45;0.70;;;0.70;;
34196;SDS011;36594;45.192;5.722;2023-03-31T06:19:33;0.70;;;0.70;;
34196;SDS011;36594;45.192;5.722;2023-03-31T06:22:22;0.80;;;0.80;;
34196;SDS011;36594;45.192;5.722;2023-03-31T06:25:10;1.17;;;1.05;;
34196;SDS011;36594;45.192;5.722;2023-03-31T06:27:59;0.82;;;0.82;;
34196;SDS011;36594;45.192;5.722;2023-03-31T06:30:48;2.10;;;0.88;;
34196;SDS011;36594;45.192;5.722;2023-03-31T06:33:36;1.95;;;0.70;;
34196;SDS011;36594;45.192;5.722;2023-03-31T06:36:25;0.90;;;0.90;;
34196;SDS011;36594;45.192;5.722;2023-03-31T06:39:13;2.60;;;0.90;;
34196;SDS011;36594;45.192;5.722;2023-03-31T06:42:02;0.70;;;0.70;;
34196;SDS011;36594;45.192;5.722;2023-03-31T06:44:52;1.60;;;0.70;;
34196;SDS011;36594;45.192;5.722;2023-03-31T06:47:41;0.70;;;0.70;;
34196;SDS011;36594;45.192;5.722;2023-03-31T06:50:29;2.60;;;1.00;;
34196;SDS011;36594;45.192;5.722;2023-03-31T06:53:18;0.70;;;0.70;;
34196;SDS011;36594;45.192;5.722;2023-03-31T06:56:07;1.05;;;0.95;;
34196;SDS011;36594;45.192;5.722;2023-03-31T06:58:56;0.65;;;0.65;;
34196;SDS011;36594;45.192;5.722;2023-03-31T07:01:44;0.85;;;0.80;;
34196;SDS011;36594;45.192;5.722;2023-03-31T07:04:33;0.78;;;0.78;;
34196;SDS011;36594;45.192;5.722;2023-03-31T07:07:21;1.10;;;0.80;;
34196;SDS011;36594;45.192;5.722;2023-03-31T07:10:10;0.60;;;0.60;;
34196;SDS011;36594;45.192;5.722;2023-03-31T07:12:59;1.75;;;0.72;;
34196;SDS011;36594;45.192;5.722;2023-03-31T07:15:47;0.80;;;0.80;;
34196;SDS011;36594;45.192;5.722;2023-03-31T07:18:35;0.80;;;0.80;;
34196;SDS011;36594;45.192;5.722;2023-03-31T07:21:25;0.85;;;0.70;;
34196;SDS011;36594;45.192;5.722;2023-03-31T07:24:14;0.53;;;0.53;;
34196;SDS011;36594;45.192;5.722;2023-03-31T07:27:02;0.85;;;0.85;;
34196;SDS011;36594;45.192;5.722;2023-03-31T07:29:51;1.50;;;0.60;;
34196;SDS011;36594;45.192;5.722;2023-03-31T07:32:40;0.70;;;0.70;;
34196;SDS011;36594;45.192;5.722;2023-03-31T07:35:28;0.60;;;0.60;;
34196;SDS011;36594;45.192;5.722;2023-03-31T07:38:17;1.07;;;0.70;;
34196;SDS011;36594;45.192;5.722;2023-03-31T07:41:08;0.98;;;0.60;;
34196;SDS011;36594;45.192;5.722;2023-03-31T07:43:59;0.63;;;0.63;;
34196;SDS011;36594;45.192;5.722;2023-03-31T07:46:48;0.68;;;0.68;;
34196;SDS011;36594;45.192;5.722;2023-03-31T07:49:36;0.80;;;0.80;;
34196;SDS011;36594;45.192;5.722;2023-03-31T07:52:24;0.70;;;0.70;;
34196;SDS011;36594;45.192;5.722;2023-03-31T07:55:13;0.53;;;0.53;;
34196;SDS011;36594;45.192;5.722;2023-03-31T07:58:02;1.70;;;0.70;;
34196;SDS011;36594;45.192;5.722;2023-03-31T08:00:50;0.68;;;0.68;;
34196;SDS011;36594;45.192;5.722;2023-03-31T08:03:38;0.65;;;0.65;;
34196;SDS011;36594;45.192;5.722;2023-03-31T08:06:27;0.70;;;0.70;;
34196;SDS011;36594;45.192;5.722;2023-03-31T08:09:17;0.65;;;0.65;;
34196;SDS011;36594;45.192;5.722;2023-03-31T08:12:08;1.70;;;0.72;;
34196;SDS011;36594;45.192;5.722;2023-03-31T08:14:56;0.60;;;0.60;;
34196;SDS011;36594;45.192;5.722;2023-03-31T08:17:45;0.70;;;0.60;;
34196;SDS011;36594;45.192;5.722;2023-03-31T08:20:33;0.50;;;0.50;;
34196;SDS011;36594;45.192;5.722;2023-03-31T08:23:22;1.97;;;0.90;;
34196;SDS011;36594;45.192;5.722;2023-03-31T08:26:12;0.80;;;0.80;;
34196;SDS011;36594;45.192;5.722;2023-03-31T08:29:03;1.07;;;0.75;;
34196;SDS011;36594;45.192;5.722;2023-03-31T08:31:52;0.68;;;0.60;;
34196;SDS011;36594;45.192;5.722;2023-03-31T08:34:41;0.60;;;0.60;;
34196;SDS011;36594;45.192;5.722;2023-03-31T08:37:31;0.60;;;0.60;;
34196;SDS011;36594;45.192;5.722;2023-03-31T08:40:24;0.70;;;0.60;;
34196;SDS011;36594;45.192;5.722;2023-03-31T08:43:25;0.70;;;0.70;;
34196;SDS011;36594;45.192;5.722;2023-03-31T08:46:12;0.80;;;0.80;;
34196;SDS011;36594;45.192;5.722;2023-03-31T08:49:03;0.70;;;0.70;;
34196;SDS011;36594;45.192;5.722;2023-03-31T08:51:54;0.80;;;0.60;;
34196;SDS011;36594;45.192;5.722;2023-03-31T08:54:46;0.50;;;0.50;;
34196;SDS011;36594;45.192;5.722;2023-03-31T08:57:39;0.80;;;0.80;;
34196;SDS011;36594;45.192;5.722;2023-03-31T09:00:36;0.93;;;0.93;;
34196;SDS011;36594;45.192;5.722;2023-03-31T09:03:30;0.85;;;0.85;;
34196;SDS011;36594;45.192;5.722;2023-03-31T09:06:30;0.70;;;0.70;;
34196;SDS011;36594;45.192;5.722;2023-03-31T09:09:24;0.60;;;0.60;;
34196;SDS011;36594;45.192;5.722;2023-03-31T09:15:44;0.70;;;0.70;;
34196;SDS011;36594;45.192;5.722;2023-03-31T09:18:46;0.65;;;0.65;;
34196;SDS011;36594;45.192;5.722;2023-03-31T09:21:50;0.90;;;0.90;;
34196;SDS011;36594;45.192;5.722;2023-03-31T09:24:41;0.80;;;0.80;;
34196;SDS011;36594;45.192;5.722;2023-03-31T09:30:19;0.80;;;0.80;;
34196;SDS011;36594;45.192;5.722;2023-03-31T09:33:28;0.65;;;0.65;;
34196;SDS011;36594;45.192;5.722;2023-03-31T09:36:18;0.60;;;0.60;;
34196;SDS011;36594;45.192;5.722;2023-03-31T09:39:13;0.88;;;0.88;;
34196;SDS011;36594;45.192;5.722;2023-03-31T09:42:00;1.52;;;0.80;;
34196;SDS011;36594;45.192;5.722;2023-03-31T09:44:48;0.88;;;0.88;;
34196;SDS011;36594;45.192;5.722;2023-03-31T09:47:41;0.75;;;0.70;;
34196;SDS011;36594;45.192;5.722;2023-03-31T09:50:42;0.78;;;0.78;;
34196;SDS011;36594;45.192;5.722;2023-03-31T09:53:31;0.80;;;0.80;;
34196;SDS011;36594;45.192;5.722;2023-03-31T09:56:32;0.90;;;0.90;;
34196;SDS011;36594;45.192;5.722;2023-03-31T09:59:28;0.70;;;0.70;;
34196;SDS011;36594;45.192;5.722;2023-03-31T10:02:22;0.80;;;0.80;;
34196;SDS011;36594;45.192;5.722;2023-03-31T10:05:31;0.70;;;0.70;;
34196;SDS011;36594;45.192;5.722;2023-03-31T10:11:17;1.15;;;0.70;;
34196;SDS011;36594;45.192;5.722;2023-03-31T10:14:17;0.78;;;0.70;;
34196;SDS011;36594;45.192;5.722;2023-03-31T10:17:02;0.70;;;0.70;;
34196;SDS011;36594;45.192;5.722;2023-03-31T10:19:59;0.60;;;0.60;;
34196;SDS011;36594;45.192;5.722;2023-03-31T10:22:51;1.80;;;0.85;;
34196;SDS011;36594;45.192;5.722;2023-03-31T10:25:39;0.72;;;0.72;;
34196;SDS011;36594;45.192;5.722;2023-03-31T10:28:30;0.85;;;0.70;;
34196;SDS011;36594;45.192;5.722;2023-03-31T10:31:18;0.80;;;0.80;;
34196;SDS011;36594;45.192;5.722;2023-03-31T10:34:11;0.55;;;0.55;;
34196;SDS011;36594;45.192;5.722;2023-03-31T10:37:02;0.70;;;0.70;;
34196;SDS011;36594;45.192;5.722;2023-03-31T10:40:03;0.72;;;0.72;;
34196;SDS011;36594;45.192;5.722;2023-03-31T10:43:00;0.70;;;0.70;;
34196;SDS011;36594;45.192;5.722;2023-03-31T10:45:58;0.75;;;0.75;;
34196;SDS011;36594;45.192;5.722;2023-03-31T10:48:47;1.20;;;0.70;;
34196;SDS011;36594;45.192;5.722;2023-03-31T10:51:39;0.83;;;0.83;;
34196;SDS011;36594;45.192;5.722;2023-03-31T10:54:30;0.80;;;0.80;;
34196;SDS011;36594;45.192;5.722;2023-03-31T10:57:18;1.10;;;0.60;;
34196;SDS011;36594;45.192;5.722;2023-03-31T11:21:54;1.40;;;1.40;;
34196;SDS011;36594;45.192;5.722;2023-03-31T11:31:15;1.85;;;1.75;;
34196;SDS011;36594;45.192;5.722;2023-03-31T11:43:52;1.70;;;1.60;;
34196;SDS011;36594;45.192;5.722;2023-03-31T11:46:43;1.90;;;1.70;;
34196;SDS011;36594;45.192;5.722;2023-03-31T11:49:33;3.87;;;1.70;;
34196;SDS011;36594;45.192;5.722;2023-03-31T11:52:28;3.40;;;1.98;;
34196;SDS011;36594;45.192;5.722;2023-03-31T11:55:20;1.97;;;1.77;;
34196;SDS011;36594;45.192;5.722;2023-03-31T11:58:15;1.70;;;1.60;;
34196;SDS011;36594;45.192;5.722;2023-03-31T12:01:10;1.92;;;1.82;;
34196;SDS011;36594;45.192;5.722;2023-03-31T12:04:08;1.85;;;1.75;;
34196;SDS011;36594;45.192;5.722;2023-03-31T12:10:19;1.65;;;1.55;;
34196;SDS011;36594;45.192;5.722;2023-03-31T12:13:16;2.70;;;1.70;;
34196;SDS011;36594;45.192;5.722;2023-03-31T12:19:17;1.87;;;1.77;;
34196;SDS011;36594;45.192;5.722;2023-03-31T12:22:26;1.70;;;1.60;;
34196;SDS011;36594;45.192;5.722;2023-03-31T12:25:18;2.05;;;1.77;;
34196;SDS011;36594;45.192;5.722;2023-03-31T12:28:12;1.75;;;1.62;;
34196;SDS011;36594;45.192;5.722;2023-03-31T12:31:02;1.70;;;1.53;;
34196;SDS011;36594;45.192;5.722;2023-03-31T12:33:54;1.62;;;1.52;;
34196;SDS011;36594;45.192;5.722;2023-03-31T12:39:48;3.10;;;1.83;;
34196;SDS011;36594;45.192;5.722;2023-03-31T12:42:44;1.57;;;1.47;;
34196;SDS011;36594;45.192;5.722;2023-03-31T12:45:40;1.73;;;1.50;;
34196;SDS011;36594;45.192;5.722;2023-03-31T12:51:37;1.80;;;1.70;;
34196;SDS011;36594;45.192;5.722;2023-03-31T12:57:39;2.08;;;1.80;;
34196;SDS011;36594;45.192;5.722;2023-03-31T13:00:27;2.92;;;1.70;;
34196;SDS011;36594;45.192;5.722;2023-03-31T13:12:27;1.47;;;1.37;;
34196;SDS011;36594;45.192;5.722;2023-03-31T13:15:17;2.00;;;1.90;;
34196;SDS011;36594;45.192;5.722;2023-03-31T13:18:13;1.62;;;1.52;;
34196;SDS011;36594;45.192;5.722;2023-03-31T13:20:59;1.60;;;1.50;;
34196;SDS011;36594;45.192;5.722;2023-03-31T13:23:53;1.70;;;1.60;;
34196;SDS011;36594;45.192;5.722;2023-03-31T13:26:48;1.80;;;1.70;;
34196;SDS011;36594;45.192;5.722;2023-03-31T13:29:42;1.65;;;1.55;;
34196;SDS011;36594;45.192;5.722;2023-03-31T13:32:31;1.90;;;1.80;;
34196;SDS011;36594;45.192;5.722;2023-03-31T13:35:22;1.67;;;1.50;;
34196;SDS011;36594;45.192;5.722;2023-03-31T13:38:29;2.80;;;1.70;;
34196;SDS011;36594;45.192;5.722;2023-03-31T13:44:19;1.80;;;1.50;;
34196;SDS011;36594;45.192;5.722;2023-03-31T13:50:28;1.40;;;1.37;;
34196;SDS011;36594;45.192;5.722;2023-03-31T13:56:11;1.60;;;1.50;;
34196;SDS011;36594;45.192;5.722;2023-03-31T14:02:24;1.40;;;1.30;;
34196;SDS011;36594;45.192;5.722;2023-03-31T14:05:22;1.42;;;1.37;;
34196;SDS011;36594;45.192;5.722;2023-03-31T14:08:50;2.40;;;1.67;;
34196;SDS011;36594;45.192;5.722;2023-03-31T14:11:32;1.80;;;1.20;;
34196;SDS011;36594;45.192;5.722;2023-03-31T14:14:17;1.52;;;1.42;;
34196;SDS011;36594;45.192;5.722;2023-03-31T14:17:05;1.77;;;1.67;;
34196;SDS011;36594;45.192;5.722;2023-03-31T14:29:30;1.60;;;1.50;;
34196;SDS011;36594;45.192;5.722;2023-03-31T14:32:33;1.60;;;1.37;;
34196;SDS011;36594;45.192;5.722;2023-03-31T14:35:30;1.40;;;1.30;;
34196;SDS011;36594;45.192;5.722;2023-03-31T14:38:23;1.30;;;1.20;;
34196;SDS011;36594;45.192;5.722;2023-03-31T14:41:18;1.70;;;1.60;;
34196;SDS011;36594;45.192;5.722;2023-03-31T14:44:13;1.67;;;1.57;;
34196;SDS011;36594;45.192;5.722;2023-03-31T14:47:04;1.57;;;1.27;;
34196;SDS011;36594;45.192;5.722;2023-03-31T14:49:58;1.62;;;1.52;;
34196;SDS011;36594;45.192;5.722;2023-03-31T14:53:03;1.47;;;1.37;;
34196;SDS011;36594;45.192;5.722;2023-03-31T14:56:02;1.27;;;1.27;;
34196;SDS011;36594;45.192;5.722;2023-03-31T14:58:48;1.20;;;1.20;;
34196;SDS011;36594;45.192;5.722;2023-03-31T15:01:38;1.60;;;1.50;;
34196;SDS011;36594;45.192;5.722;2023-03-31T15:04:28;1.45;;;1.35;;
34196;SDS011;36594;45.192;5.722;2023-03-31T15:07:19;1.57;;;1.40;;
34196;SDS011;36594;45.192;5.722;2023-03-31T15:10:11;1.47;;;1.37;;
34196;SDS011;36594;45.192;5.722;2023-03-31T15:13:00;2.00;;;1.40;;
34196;SDS011;36594;45.192;5.722;2023-03-31T15:15:50;1.60;;;1.50;;
34196;SDS011;36594;45.192;5.722;2023-03-31T15:18:39;1.50;;;1.40;;
34196;SDS011;36594;45.192;5.722;2023-03-31T15:21:29;1.50;;;1.40;;
34196;SDS011;36594;45.192;5.722;2023-03-31T15:24:18;1.30;;;1.20;;
34196;SDS011;36594;45.192;5.722;2023-03-31T15:27:14;1.75;;;1.10;;
34196;SDS011;36594;45.192;5.722;2023-03-31T15:30:05;1.30;;;1.30;;
34196;SDS011;36594;45.192;5.722;2023-03-31T15:32:55;1.50;;;1.40;;
34196;SDS011;36594;45.192;5.722;2023-03-31T15:35:45;1.25;;;1.17;;
34196;SDS011;36594;45.192;5.722;2023-03-31T15:38:34;1.30;;;1.20;;
34196;SDS011;36594;45.192;5.722;2023-03-31T15:41:22;1.45;;;1.20;;
34196;SDS011;36594;45.192;5.722;2023-03-31T15:44:29;1.30;;;1.20;;
34196;SDS011;36594;45.192;5.722;2023-03-31T15:47:28;1.20;;;1.20;;
34196;SDS011;36594;45.192;5.722;2023-03-31T15:50:22;1.50;;;1.40;;
34196;SDS011;36594;45.192;5.722;2023-03-31T15:53:25;1.22;;;1.20;;
34196;SDS011;36594;45.192;5.722;2023-03-31T15:59:23;1.40;;;1.30;;
34196;SDS011;36594;45.192;5.722;2023-03-31T16:02:16;1.40;;;1.30;;
34196;SDS011;36594;45.192;5.722;2023-03-31T16:05:56;1.30;;;1.30;;
34196;SDS011;36594;45.192;5.722;2023-03-31T16:09:03;1.10;;;1.10;;
34196;SDS011;36594;45.192;5.722;2023-03-31T16:11:23;1.10;;;1.00;;
34196;SDS011;36594;45.192;5.722;2023-03-31T16:14:14;1.92;;;1.12;;
34196;SDS011;36594;45.192;5.722;2023-03-31T16:17:10;2.20;;;1.32;;
34196;SDS011;36594;45.192;5.722;2023-03-31T16:20:03;1.37;;;1.30;;
34196;SDS011;36594;45.192;5.722;2023-03-31T16:22:55;1.00;;;1.00;;
34196;SDS011;36594;45.192;5.722;2023-03-31T16:25:45;1.40;;;1.30;;
34196;SDS011;36594;45.192;5.722;2023-03-31T16:28:35;1.27;;;1.17;;
34196;SDS011;36594;45.192;5.722;2023-03-31T16:31:28;0.90;;;0.90;;
34196;SDS011;36594;45.192;5.722;2023-03-31T16:34:21;1.27;;;1.17;;
34196;SDS011;36594;45.192;5.722;2023-03-31T16:37:10;2.50;;;1.27;;
34196;SDS011;36594;45.192;5.722;2023-03-31T16:39:58;1.40;;;1.10;;
34196;SDS011;36594;45.192;5.722;2023-03-31T16:42:47;1.70;;;1.40;;
34196;SDS011;36594;45.192;5.722;2023-03-31T16:45:37;1.20;;;1.20;;
34196;SDS011;36594;45.192;5.722;2023-03-31T16:48:27;1.20;;;1.20;;
34196;SDS011;36594;45.192;5.722;2023-03-31T16:51:18;1.22;;;1.17;;
34196;SDS011;36594;45.192;5.722;2023-03-31T16:54:07;2.37;;;1.10;;
34196;SDS011;36594;45.192;5.722;2023-03-31T16:56:55;1.35;;;1.25;;
34196;SDS011;36594;45.192;5.722;2023-03-31T16:59:44;1.20;;;1.10;;
34196;SDS011;36594;45.192;5.722;2023-03-31T17:02:33;1.20;;;1.10;;
34196;SDS011;36594;45.192;5.722;2023-03-31T17:05:21;1.20;;;1.15;;
34196;SDS011;36594;45.192;5.722;2023-03-31T17:08:10;1.32;;;1.22;;
34196;SDS011;36594;45.192;5.722;2023-03-31T17:11:01;1.70;;;1.00;;
34196;SDS011;36594;45.192;5.722;2023-03-31T17:13:52;1.40;;;1.30;;
34196;SDS011;36594;45.192;5.722;2023-03-31T17:16:42;1.10;;;1.10;;
34196;SDS011;36594;45.192;5.722;2023-03-31T17:19:31;1.10;;;1.10;;
34196;SDS011;36594;45.192;5.722;2023-03-31T17:22:19;1.20;;;1.10;;
34196;SDS011;36594;45.192;5.722;2023-03-31T17:25:08;1.20;;;1.10;;
34196;SDS011;36594;45.192;5.722;2023-03-31T17:27:57;1.17;;;1.15;;
34196;SDS011;36594;45.192;5.722;2023-03-31T17:30:46;1.10;;;1.10;;
34196;SDS011;36594;45.192;5.722;2023-03-31T17:33:35;0.93;;;0.93;;
34196;SDS011;36594;45.192;5.722;2023-03-31T17:36:23;1.22;;;1.12;;
34196;SDS011;36594;45.192;5.722;2023-03-31T17:39:12;1.00;;;1.00;;
34196;SDS011;36594;45.192;5.722;2023-03-31T17:42:01;1.32;;;1.02;;
34196;SDS011;36594;45.192;5.722;2023-03-31T17:44:50;1.02;;;1.02;;
34196;SDS011;36594;45.192;5.722;2023-03-31T17:47:39;1.30;;;1.30;;
34196;SDS011;36594;45.192;5.722;2023-03-31T17:50:29;1.20;;;1.20;;
34196;SDS011;36594;45.192;5.722;2023-03-31T17:53:19;1.10;;;1.10;;
34196;SDS011;36594;45.192;5.722;2023-03-31T17:56:07;1.00;;;1.00;;
34196;SDS011;36594;45.192;5.722;2023-03-31T17:58:56;0.80;;;0.80;;
34196;SDS011;36594;45.192;5.722;2023-03-31T18:01:44;1.23;;;1.20;;
34196;SDS011;36594;45.192;5.722;2023-03-31T18:04:33;1.15;;;1.10;;
34196;SDS011;36594;45.192;5.722;2023-03-31T18:07:21;1.00;;;1.00;;
34196;SDS011;36594;45.192;5.722;2023-03-31T18:10:10;1.20;;;1.10;;
34196;SDS011;36594;45.192;5.722;2023-03-31T18:12:58;1.05;;;1.05;;
34196;SDS011;36594;45.192;5.722;2023-03-31T18:15:48;2.33;;;1.15;;
34196;SDS011;36594;45.192;5.722;2023-03-31T18:18:38;1.10;;;1.10;;
34196;SDS011;36594;45.192;5.722;2023-03-31T18:21:27;0.93;;;0.93;;
34196;SDS011;36594;45.192;5.722;2023-03-31T18:24:16;1.00;;;1.00;;
34196;SDS011;36594;45.192;5.722;2023-03-31T18:27:06;1.15;;;0.90;;
34196;SDS011;36594;45.192;5.722;2023-03-31T18:29:54;0.90;;;0.90;;
34196;SDS011;36594;45.192;5.722;2023-03-31T18:32:43;0.90;;;0.90;;
34196;SDS011;36594;45.192;5.722;2023-03-31T18:35:31;1.10;;;1.00;;
34196;SDS011;36594;45.192;5.722;2023-03-31T18:38:20;0.82;;;0.82;;
34196;SDS011;36594;45.192;5.722;2023-03-31T18:41:08;0.93;;;0.93;;
34196;SDS011;36594;45.192;5.722;2023-03-31T18:43:57;1.65;;;0.80;;
34196;SDS011;36594;45.192;5.722;2023-03-31T18:46:45;1.30;;;0.88;;
34196;SDS011;36594;45.192;5.722;2023-03-31T18:49:34;0.80;;;0.80;;
34196;SDS011;36594;45.192;5.722;2023-03-31T18:52:22;0.88;;;0.88;;
34196;SDS011;36594;45.192;5.722;2023-03-31T18:55:10;1.17;;;1.10;;
34196;SDS011;36594;45.192;5.722;2023-03-31T18:57:58;0.90;;;0.90;;
34196;SDS011;36594;45.192;5.722;2023-03-31T19:00:46;1.90;;;0.80;;
34196;SDS011;36594;45.192;5.722;2023-03-31T19:03:35;0.85;;;0.85;;
34196;SDS011;36594;45.192;5.722;2023-03-31T19:06:23;0.80;;;0.80;;
34196;SDS011;36594;45.192;5.722;2023-03-31T19:09:12;0.70;;;0.70;;
34196;SDS011;36594;45.192;5.722;2023-03-31T19:12:01;0.80;;;0.80;;
34196;SDS011;36594;45.192;5.722;2023-03-31T19:14:50;0.70;;;0.70;;
34196;SDS011;36594;45.192;5.722;2023-03-31T19:17:39;0.73;;;0.73;;
34196;SDS011;36594;45.192;5.722;2023-03-31T19:20:27;0.80;;;0.80;;
34196;SDS011;36594;45.192;5.722;2023-03-31T19:23:16;0.90;;;0.90;;
34196;SDS011;36594;45.192;5.722;2023-03-31T19:26:04;0.77;;;0.77;;